Time;durP1;ratioP1;P1;durP2;ratioP2;P2;SDS_P1;SDS_P2;PMS_P1;PMS_P2;Temp;Humidity;BMP_temperature;BMP_pressure;BME280_temperature;BME280_humidity;BME280_pressure;Samples;Min_cycle;Max_cycle;Signal;HPM_P1;HPM_P2
2022/01/23 00:00:55;;;;;;;10.32;6.70;;;;;;;17.04;41.19;102658.09;4415549;32;20045;-70
2022/01/23 00:03:21;;;;;;;12.70;7.60;;;;;;;17.15;40.81;102665.16;4410426;32;20037;-69
2022/01/23 00:05:51;;;;;;;12.80;7.15;;;;;;;17.23;40.90;102658.09;4416189;32;20353;-69
2022/01/23 00:08:20;;;;;;;14.75;7.75;;;;;;;17.34;40.64;102664.34;4416094;32;20097;-69
2022/01/23 00:10:47;;;;;;;12.15;7.15;;;;;;;17.32;40.48;102664.00;4412183;32;20034;-69
2022/01/23 00:13:22;;;;;;;12.52;7.57;;;;;;;17.27;40.76;102667.34;4411700;32;20524;-69
2022/01/23 00:18:33;;;;;;;;;;;;;;;17.17;40.86;102656.19;4413764;32;20109;-69
2022/01/23 00:20:59;;;;;;;11.27;6.82;;;;;;;17.61;40.02;102661.34;4414128;32;20452;-69
2022/01/23 00:23:31;;;;;;;14.43;7.47;;;;;;;17.26;40.64;102662.91;4418228;32;20395;-69
2022/01/23 00:31:30;;;;;;;12.65;7.15;;;;;;;17.64;39.95;102655.56;4409067;32;20431;-69
2022/01/23 00:33:56;;;;;;;13.57;6.45;;;;;;;17.32;40.46;102663.19;4412863;32;20080;-69
2022/01/23 00:36:23;;;;;;;12.45;6.82;;;;;;;17.28;40.49;102657.56;4410896;32;20126;-69
2022/01/23 00:38:49;;;;;;;11.27;6.03;;;;;;;17.35;40.45;102656.63;4415849;32;20164;-69
2022/01/23 00:41:15;;;;;;;9.95;6.85;;;;;;;17.24;40.71;102653.19;4413466;32;20173;-69
2022/01/23 00:43:42;;;;;;;10.95;6.93;;;;;;;17.26;40.67;102653.56;4413799;32;20081;-69
2022/01/23 00:46:31;;;;;;;12.10;7.07;;;;;;;17.25;40.61;102647.06;4413293;32;20178;-70
2022/01/23 00:51:35;;;;;;;17.08;8.45;;;;;;;17.92;39.81;102651.28;3997094;31;15017227;-68
2022/01/23 00:54:05;;;;;;;20.23;9.18;;;;;;;17.92;39.81;102651.28;4455838;32;20072;-69
2022/01/23 00:56:31;;;;;;;19.50;9.48;;;;;;;17.53;40.35;102639.97;4444276;32;20503;-69
2022/01/23 00:58:56;;;;;;;18.90;9.35;;;;;;;17.22;40.93;102642.28;4444193;32;20041;-69
2022/01/23 01:01:22;;;;;;;22.20;8.50;;;;;;;17.31;40.79;102636.75;4449892;32;20041;-69
2022/01/23 01:03:48;;;;;;;19.87;9.30;;;;;;;17.26;40.91;102642.16;4450235;32;20072;-69
2022/01/23 01:06:17;;;;;;;17.98;9.82;;;;;;;17.26;40.86;102645.81;4451986;32;20087;-69
2022/01/23 01:08:43;;;;;;;17.70;9.15;;;;;;;17.52;40.45;102649.78;4451627;32;20493;-69
2022/01/23 01:16:51;;;;;;;16.05;7.95;;;;;;;17.66;40.17;102641.69;3979409;32;15022055;-70
2022/01/23 01:35:51;;;;;;;12.13;7.15;;;;;;;17.56;40.42;102627.72;3979750;32;15021914;-70
2022/01/23 01:38:18;;;;;;;11.05;6.75;;;;;;;17.56;40.42;102627.72;4435814;32;20037;-70
2022/01/23 01:40:43;;;;;;;13.77;6.75;;;;;;;17.08;40.85;102628.31;4429804;32;20082;-70
2022/01/23 01:43:09;;;;;;;10.88;6.68;;;;;;;17.08;41.13;102630.34;4431340;32;20092;-70
2022/01/23 01:45:36;;;;;;;12.32;6.30;;;;;;;17.10;41.06;102630.72;4434594;32;20069;-70
2022/01/23 01:48:03;;;;;;;10.38;6.80;;;;;;;17.13;41.08;102624.16;4429279;32;20370;-70
2022/01/23 01:50:30;;;;;;;12.63;7.22;;;;;;;17.17;41.10;102624.88;4430577;32;20030;-70
2022/01/23 01:52:56;;;;;;;14.93;8.00;;;;;;;17.22;41.21;102625.19;4429597;32;20077;-70
2022/01/23 01:55:27;;;;;;;12.50;7.32;;;;;;;17.14;41.22;102623.72;4430708;32;20425;-70
2022/01/23 01:58:00;;;;;;;11.12;6.85;;;;;;;17.07;41.21;102626.72;4430351;32;20103;-70
2022/01/23 02:01:01;;;;;;;13.50;6.65;;;;;;;17.20;41.01;102624.00;4428598;32;20034;-70
2022/01/23 02:08:15;;;;;;;11.35;6.70;;;;;;;16.96;41.46;102617.59;4428380;32;20551;-70
2022/01/23 02:08:44;;;;;;;;;;;;;;;16.99;41.13;102636.63;4428192;32;20447;-70
2022/01/23 02:11:17;;;;;;;12.85;7.20;;;;;;;17.50;40.59;102635.16;4429524;32;20004;-70
2022/01/23 02:52:16;;;;;;;9.48;4.20;;;;;;;17.01;41.15;102593.53;4431006;32;20091;-69
2022/01/23 02:57:35;;;;;;;8.15;4.10;;;;;;;17.74;40.41;102585.38;3949637;32;15723604;-70
2022/01/23 03:00:01;;;;;;;6.47;3.33;;;;;;;17.74;40.41;102585.38;4429720;32;20411;-70
2022/01/23 03:02:37;;;;;;;6.68;2.72;;;;;;;17.09;40.71;102575.09;4426058;32;20136;-70
2022/01/23 03:05:05;;;;;;;5.12;2.70;;;;;;;17.08;40.98;102574.28;4428489;32;20038;-70
2022/01/23 03:10:22;;;;;;;;;;;;;;;17.05;40.80;102574.34;4427669;32;20045;-70
2022/01/23 03:24:31;;;;;;;3.28;1.05;;;;;;;17.34;40.30;102575.31;4427090;32;20026;-70
2022/01/23 03:26:49;;;;;;;;;;;;;;;17.16;40.37;102578.56;4429570;32;20030;-70
2022/01/23 03:29:20;;;;;;;3.55;1.73;;;;;;;17.56;39.59;102577.28;4428730;32;19984;-70
2022/01/23 03:34:29;;;;;;;2.80;1.70;;;;;;;17.74;39.59;102574.00;3978744;32;15021658;-70
2022/01/23 03:36:56;;;;;;;3.62;1.90;;;;;;;17.74;39.59;102574.00;4427145;32;20064;-70
2022/01/23 03:39:23;;;;;;;8.48;4.37;;;;;;;17.48;39.89;102570.13;4429426;32;20057;-70
2022/01/23 03:41:49;;;;;;;3.50;2.12;;;;;;;17.41;39.81;102572.31;4426709;32;20447;-70
2022/01/23 03:44:17;;;;;;;3.10;1.70;;;;;;;17.46;39.73;102572.59;4428567;32;20037;-70
2022/01/23 03:47:20;;;;;;;2.78;1.40;;;;;;;17.61;39.48;102565.34;4425494;32;20041;-70
2022/01/23 03:49:31;;;;;;;3.15;1.23;;;;;;;17.63;39.47;102560.00;4428311;32;20089;-70
2022/01/23 03:52:01;;;;;;;2.40;1.30;;;;;;;17.30;39.74;102561.16;4427194;32;20066;-70
2022/01/23 03:54:27;;;;;;;2.97;1.42;;;;;;;17.61;39.56;102555.97;4424368;32;20486;-70
2022/01/23 03:56:57;;;;;;;3.08;1.77;;;;;;;17.27;39.57;102555.53;4427229;32;20114;-70
2022/01/23 03:59:23;;;;;;;2.90;1.30;;;;;;;17.53;39.45;102557.41;4426045;32;20113;-70
2022/01/23 04:01:49;;;;;;;3.65;1.30;;;;;;;17.36;39.45;102552.91;4425126;32;20133;-70
2022/01/23 04:04:47;;;;;;;3.33;1.77;;;;;;;17.41;39.51;102549.53;4427615;32;20069;-70
2022/01/23 04:07:00;;;;;;;2.67;1.87;;;;;;;17.46;39.31;102554.75;4427707;32;20033;-70
2022/01/23 04:09:26;;;;;;;3.17;1.73;;;;;;;17.50;39.16;102547.72;4425557;32;20537;-70
2022/01/23 04:11:52;;;;;;;3.30;1.98;;;;;;;17.51;39.00;102552.16;4428281;32;20105;-70
2022/01/23 04:14:20;;;;;;;4.65;2.17;;;;;;;17.45;39.26;102548.25;4425947;32;20108;-70
2022/01/23 04:17:17;;;;;;;4.78;2.55;;;;;;;17.45;39.27;102553.94;4427202;32;20076;-70
2022/01/23 04:19:57;;;;;;;4.35;2.58;;;;;;;17.58;39.03;102549.13;4425928;32;20470;-70
2022/01/23 05:00:53;;;;;;;4.97;2.97;;;;;;;17.25;39.54;102560.91;4419278;32;20368;-70
2022/01/23 05:06:07;;;;;;;5.10;2.37;;;;;;;17.23;39.50;102552.81;4434134;32;20084;-70
2022/01/23 05:08:35;;;;;;;2.95;1.77;;;;;;;17.03;40.01;102554.84;4435033;32;20706;-70
2022/01/23 05:11:03;;;;;;;3.58;1.83;;;;;;;17.08;39.71;102548.66;4433986;32;20185;-70
2022/01/23 05:13:30;;;;;;;3.47;1.98;;;;;;;17.26;39.62;102551.91;4434397;32;20304;-70
2022/01/23 05:15:57;;;;;;;3.20;1.95;;;;;;;16.99;39.97;102553.34;4431391;32;20069;-70
2022/01/23 05:18:23;;;;;;;3.47;1.95;;;;;;;16.88;40.37;102555.63;4431857;32;20053;-70
2022/01/23 05:20:57;;;;;;;4.22;1.70;;;;;;;17.10;40.07;102549.03;4434667;32;20094;-70
2022/01/23 05:23:22;;;;;;;2.70;1.50;;;;;;;17.23;39.60;102546.28;4435635;32;20108;-70
2022/01/23 05:25:48;;;;;;;3.78;1.37;;;;;;;16.97;39.43;102531.03;4435746;32;20033;-70
2022/01/23 05:28:14;;;;;;;2.50;1.10;;;;;;;16.89;39.77;102535.28;4433619;32;20288;-70
2022/01/23 05:30:40;;;;;;;3.10;1.20;;;;;;;16.98;39.57;102546.88;4433051;32;20059;-70
2022/01/23 05:33:06;;;;;;;2.62;1.55;;;;;;;16.88;39.28;102539.34;4432853;32;20486;-70
2022/01/23 05:35:32;;;;;;;2.28;1.25;;;;;;;16.98;39.71;102534.69;4432951;32;20106;-70
2022/01/23 05:37:58;;;;;;;2.35;1.37;;;;;;;17.14;39.42;102540.41;4434908;32;20438;-70
2022/01/23 05:40:27;;;;;;;5.68;1.65;;;;;;;17.23;39.34;102541.41;4436771;32;20061;-70
2022/01/23 05:42:53;;;;;;;4.00;2.20;;;;;;;17.10;39.59;102539.69;4417326;32;20559;-70
2022/01/23 05:45:20;;;;;;;3.12;1.45;;;;;;;17.02;39.69;102546.75;4435746;32;20067;-70
2022/01/23 05:47:46;;;;;;;4.03;1.77;;;;;;;17.17;39.59;102539.53;4432047;32;20466;-70
2022/01/23 05:50:11;;;;;;;3.60;2.12;;;;;;;17.08;39.71;102540.12;4431536;32;20156;-70
2022/01/23 05:52:37;;;;;;;4.70;2.30;;;;;;;17.20;39.73;102544.34;4431739;32;20066;-70
2022/01/23 05:55:06;;;;;;;6.90;2.10;;;;;;;17.21;39.64;102546.75;4434485;32;20119;-70
2022/01/23 05:57:32;;;;;;;5.45;2.28;;;;;;;17.32;39.44;102549.34;4433252;32;20047;-70
2022/01/23 05:59:57;;;;;;;3.25;1.92;;;;;;;17.32;39.61;102547.31;4426930;32;20094;-70
2022/01/23 06:02:23;;;;;;;4.55;2.03;;;;;;;17.23;39.58;102555.66;4423998;32;20115;-70
2022/01/23 06:04:49;;;;;;;3.92;2.50;;;;;;;17.29;39.40;102548.19;4421344;32;20113;-70
2022/01/23 06:07:14;;;;;;;5.15;2.65;;;;;;;17.26;39.46;102543.38;4423862;32;20073;-70
2022/01/23 06:09:41;;;;;;;5.35;2.40;;;;;;;17.33;39.24;102536.69;4424484;32;20191;-70
2022/01/23 06:12:07;;;;;;;4.95;2.53;;;;;;;17.25;39.09;102546.66;4422588;32;20025;-70
2022/01/23 06:14:33;;;;;;;4.43;2.50;;;;;;;17.47;38.92;102537.22;4423376;32;20524;-70
2022/01/23 06:16:59;;;;;;;5.20;3.03;;;;;;;17.23;39.29;102554.84;4423640;32;20033;-70
2022/01/23 06:19:25;;;;;;;4.40;2.85;;;;;;;17.11;39.42;102553.47;4425517;32;20099;-70
2022/01/23 06:21:51;;;;;;;6.95;4.53;;;;;;;17.04;39.57;102556.47;4424019;32;20030;-70
2022/01/23 06:24:26;;;;;;;8.13;4.78;;;;;;;16.81;40.07;102550.09;4421617;32;20081;-70
2022/01/23 06:26:55;;;;;;;10.07;5.87;;;;;;;16.86;40.14;102553.22;4421721;32;20026;-70
2022/01/23 06:29:22;;;;;;;12.52;6.53;;;;;;;17.02;39.94;102553.28;4422824;32;20517;-70
2022/01/23 06:31:50;;;;;;;13.27;6.97;;;;;;;16.73;40.61;102555.13;4423698;32;20037;-70
2022/01/23 06:34:17;;;;;;;12.07;7.18;;;;;;;17.00;40.22;102552.13;4421265;32;20152;-70
2022/01/23 06:36:44;;;;;;;11.40;6.85;;;;;;;16.92;40.47;102557.16;4420757;32;20065;-70
2022/01/23 06:39:11;;;;;;;14.20;7.75;;;;;;;16.73;40.57;102557.97;4423753;32;20104;-70
2022/01/23 06:41:38;;;;;;;14.50;9.18;;;;;;;16.82;40.54;102558.19;4422309;32;20083;-70
2022/01/23 06:44:05;;;;;;;16.45;9.23;;;;;;;16.89;40.32;102557.22;4421509;32;20049;-70
2022/01/23 06:46:31;;;;;;;15.38;8.63;;;;;;;16.90;40.25;102556.78;4420259;32;20086;-70
2022/01/23 06:48:57;;;;;;;15.38;9.02;;;;;;;16.70;40.21;102547.47;4423022;32;20049;-70
2022/01/23 06:51:23;;;;;;;16.20;9.05;;;;;;;16.91;40.19;102555.53;4421181;32;20108;-70
2022/01/23 06:53:49;;;;;;;17.00;10.07;;;;;;;16.97;40.22;102559.47;4421905;32;20077;-70
2022/01/23 06:56:15;;;;;;;18.70;10.65;;;;;;;17.01;40.25;102567.94;4418938;32;20104;-70
2022/01/23 06:58:41;;;;;;;14.95;9.18;;;;;;;16.90;40.34;102565.31;4406059;32;20109;-70
2022/01/23 07:01:07;;;;;;;15.15;9.07;;;;;;;17.05;40.09;102568.66;4418503;32;20057;-70
2022/01/23 07:03:35;;;;;;;15.70;9.43;;;;;;;16.81;40.32;102567.94;4422813;32;20112;-70
2022/01/23 07:06:00;;;;;;;14.80;8.82;;;;;;;17.00;39.86;102577.72;4420991;32;20620;-70
2022/01/23 07:08:26;;;;;;;16.00;9.55;;;;;;;16.90;40.04;102570.19;4422270;32;20403;-70
2022/01/23 07:10:52;;;;;;;14.25;9.07;;;;;;;16.61;40.49;102566.34;4420918;32;20041;-70
2022/01/23 07:13:17;;;;;;;17.20;9.65;;;;;;;16.95;39.70;102570.50;4421785;32;20069;-70
2022/01/23 07:15:43;;;;;;;16.20;9.60;;;;;;;16.82;40.11;102563.88;4422621;32;20475;-70
2022/01/23 07:18:09;;;;;;;15.68;9.35;;;;;;;16.99;39.68;102568.38;4425761;32;20041;-70
2022/01/23 07:20:35;;;;;;;16.65;9.55;;;;;;;17.06;39.94;102568.22;4419913;32;20056;-70
2022/01/23 07:23:01;;;;;;;15.35;9.77;;;;;;;17.10;40.09;102568.13;4418910;32;20037;-70
2022/01/23 07:25:26;;;;;;;15.55;9.70;;;;;;;16.92;40.13;102573.41;4421668;32;20792;-70
2022/01/23 07:27:56;;;;;;;16.58;9.85;;;;;;;17.08;39.98;102562.88;4421692;32;21126;-70
2022/01/23 07:33:02;;;;;;;15.88;9.73;;;;;;;17.19;39.66;102566.31;3975712;32;15038446;-70
2022/01/23 07:35:28;;;;;;;17.42;10.38;;;;;;;16.91;39.85;102561.22;4431701;32;20029;-70
2022/01/23 07:37:53;;;;;;;15.80;9.65;;;;;;;16.98;40.11;102566.78;4432709;32;20428;-70
2022/01/23 07:40:19;;;;;;;13.60;7.70;;;;;;;16.60;40.35;102562.69;4432573;32;20526;-70
2022/01/23 07:42:45;;;;;;;12.60;8.00;;;;;;;16.69;39.74;102571.44;4429409;32;20505;-70
2022/01/23 07:45:11;;;;;;;14.32;8.13;;;;;;;16.54;40.62;102572.16;4429310;32;20382;-71
2022/01/23 07:47:37;;;;;;;14.02;7.85;;;;;;;16.54;40.27;102566.47;4433686;32;20515;-70
2022/01/23 07:50:06;;;;;;;14.85;7.90;;;;;;;16.54;40.35;102569.31;4431440;32;20118;-70
2022/01/23 07:52:35;;;;;;;12.48;7.45;;;;;;;16.65;40.24;102569.91;4430509;32;20041;-70
2022/01/23 07:55:05;;;;;;;13.50;8.43;;;;;;;16.68;40.14;102569.03;4429866;32;20077;-70
2022/01/23 07:57:31;;;;;;;13.75;8.60;;;;;;;16.84;39.73;102577.66;4433710;32;20081;-70
2022/01/23 07:59:57;;;;;;;15.77;8.10;;;;;;;16.55;40.05;102565.22;4431513;32;20281;-70
2022/01/23 08:02:23;;;;;;;13.85;8.07;;;;;;;16.64;40.31;102580.50;4429503;32;20107;-70
2022/01/23 08:04:49;;;;;;;15.15;7.78;;;;;;;16.54;40.30;102569.31;4427590;32;20080;-70
2022/01/23 08:07:30;;;;;;;12.85;7.50;;;;;;;16.72;39.96;102576.25;4434181;32;20106;-70
2022/01/23 08:09:59;;;;;;;12.25;7.45;;;;;;;16.84;39.44;102569.91;4431496;32;20081;-70
2022/01/23 08:12:27;;;;;;;12.75;7.62;;;;;;;17.23;39.18;102575.56;4431015;32;20107;-70
2022/01/23 08:14:53;;;;;;;12.52;7.28;;;;;;;17.11;39.63;102570.53;4430137;32;20060;-70
2022/01/23 08:17:20;;;;;;;12.25;6.90;;;;;;;17.03;39.66;102571.16;4432022;32;20034;-70
2022/01/23 08:19:46;;;;;;;9.57;6.15;;;;;;;16.91;39.34;102571.81;4433030;32;20041;-70
2022/01/23 08:22:11;;;;;;;9.27;6.25;;;;;;;16.67;39.56;102568.25;4430083;32;20073;-70
2022/01/23 08:24:37;;;;;;;10.23;6.22;;;;;;;16.64;39.67;102565.47;4428679;32;20216;-70
2022/01/23 08:27:04;;;;;;;11.55;6.55;;;;;;;16.73;39.39;102572.19;4428421;32;20055;-70
2022/01/23 08:29:29;;;;;;;12.32;7.20;;;;;;;16.74;39.22;102555.91;4431056;32;20041;-70
2022/01/23 08:31:55;;;;;;;10.68;6.97;;;;;;;16.72;39.21;102567.72;4428453;32;20435;-70
2022/01/23 08:34:20;;;;;;;13.45;7.57;;;;;;;16.65;39.19;102570.72;4430456;32;20481;-70
2022/01/23 08:36:46;;;;;;;13.62;8.43;;;;;;;16.66;39.68;102560.94;4430529;32;20483;-70
2022/01/23 08:39:12;;;;;;;15.07;9.65;;;;;;;16.73;39.65;102560.81;4430901;32;20478;-70
2022/01/23 08:41:53;;;;;;;17.85;10.43;;;;;;;16.42;40.14;102567.91;4427833;32;20078;-70
2022/01/23 08:44:21;;;;;;;18.12;10.60;;;;;;;16.14;40.39;102562.72;4421942;32;20922;-70
2022/01/23 08:46:48;;;;;;;19.75;10.02;;;;;;;16.56;39.98;102564.78;4422959;32;20074;-70
2022/01/23 08:49:17;;;;;;;18.25;9.98;;;;;;;16.31;40.33;102572.97;4421273;32;20069;-70
2022/01/23 08:51:44;;;;;;;18.70;9.32;;;;;;;16.36;40.01;102569.63;4419835;32;20026;-70
2022/01/23 08:54:10;;;;;;;15.27;9.57;;;;;;;16.70;39.64;102567.38;4418630;32;20159;-70
2022/01/23 08:56:36;;;;;;;21.75;11.05;;;;;;;16.54;39.97;102567.25;4417226;32;20084;-70
2022/01/23 08:59:02;;;;;;;18.62;10.60;;;;;;;16.47;39.70;102564.56;4416637;32;20049;-70
2022/01/23 09:01:29;;;;;;;18.23;10.77;;;;;;;16.45;39.70;102564.22;4417171;32;20454;-70
2022/01/23 09:03:55;;;;;;;19.87;11.20;;;;;;;16.54;39.70;102561.56;4417023;32;20092;-70
2022/01/23 09:06:22;;;;;;;15.00;9.00;;;;;;;16.57;39.54;102560.72;4419298;32;20140;-70
2022/01/23 09:08:48;;;;;;;15.15;8.68;;;;;;;16.58;39.70;102565.16;4419220;32;20078;-70
2022/01/23 09:11:25;;;;;;;12.93;8.02;;;;;;;16.40;39.79;102570.38;4419720;32;20180;-70
2022/01/23 09:14:06;;;;;;;11.20;6.72;;;;;;;16.44;39.76;102570.34;4424338;32;20038;-70
2022/01/23 09:16:34;;;;;;;10.10;6.50;;;;;;;16.58;39.63;102575.72;4420609;32;20064;-70
2022/01/23 09:19:00;;;;;;;12.70;7.47;;;;;;;16.63;39.57;102578.09;4420364;32;20175;-70
2022/01/23 09:21:26;;;;;;;10.70;7.00;;;;;;;16.38;40.01;102575.66;4418439;32;20077;-70
2022/01/23 09:23:52;;;;;;;13.62;7.53;;;;;;;16.44;39.72;102578.87;4417741;32;20091;-70
2022/01/23 09:26:21;;;;;;;15.07;7.62;;;;;;;16.62;39.39;102587.81;4418411;32;20358;-70
2022/01/23 09:28:47;;;;;;;12.93;7.75;;;;;;;16.61;39.15;102574.84;4417566;32;20050;-70
2022/01/23 09:31:24;;;;;;;13.93;8.15;;;;;;;16.76;38.77;102579.84;4416654;32;20482;-70
2022/01/23 09:33:49;;;;;;;11.30;7.12;;;;;;;16.61;38.94;102589.87;4419150;32;20140;-70
2022/01/23 09:36:15;;;;;;;15.32;9.00;;;;;;;16.73;38.85;102592.09;4419227;32;20225;-70
2022/01/23 09:38:41;;;;;;;16.27;8.13;;;;;;;16.64;39.04;102583.31;4420416;32;20061;-70
2022/01/23 09:41:09;;;;;;;12.88;8.27;;;;;;;16.43;39.43;102580.91;4420611;32;20034;-70
2022/01/23 09:43:39;;;;;;;14.10;8.43;;;;;;;16.65;39.10;102582.09;4416458;32;20472;-70
2022/01/23 09:46:07;;;;;;;14.18;8.13;;;;;;;16.64;39.07;102582.53;4419845;32;20135;-70
2022/01/23 09:48:35;;;;;;;19.27;9.52;;;;;;;16.64;38.78;102580.50;4418904;32;20242;-70
2022/01/23 09:51:03;;;;;;;15.38;9.73;;;;;;;16.70;39.09;102584.44;4418865;32;20081;-70
2022/01/23 09:53:30;;;;;;;16.30;10.00;;;;;;;16.60;39.20;102582.56;4422260;32;20116;-70
2022/01/23 09:56:03;;;;;;;14.98;10.00;;;;;;;16.29;39.49;102583.16;4415018;32;20042;-70
2022/01/23 09:58:30;;;;;;;14.63;10.05;;;;;;;16.29;39.30;102581.12;4420933;32;20026;-70
2022/01/23 10:00:58;;;;;;;19.23;12.10;;;;;;;16.26;39.17;102586.88;4416003;32;20114;-70
2022/01/23 10:03:24;;;;;;;21.55;12.55;;;;;;;16.20;39.33;102597.91;4421277;32;20068;-70
2022/01/23 10:05:55;;;;;;;18.83;12.10;;;;;;;16.18;39.53;102594.72;4418677;32;20532;-70
2022/01/23 10:08:23;;;;;;;20.25;12.63;;;;;;;16.36;39.14;102592.37;4416010;32;20097;-70
2022/01/23 10:10:52;;;;;;;22.60;14.05;;;;;;;16.16;39.52;102591.50;4418239;32;20077;-70
2022/01/23 10:13:22;;;;;;;23.45;14.52;;;;;;;16.18;39.43;102591.88;4418403;32;20073;-70
2022/01/23 10:15:48;;;;;;;23.05;14.20;;;;;;;16.49;38.98;102579.16;4420107;32;20068;-71
2022/01/23 10:18:14;;;;;;;24.58;15.57;;;;;;;16.40;38.98;102589.44;4418220;32;20081;-70
2022/01/23 10:20:41;;;;;;;24.15;15.10;;;;;;;16.30;39.28;102579.09;4418034;32;20064;-69
2022/01/23 10:23:09;;;;;;;27.77;16.70;;;;;;;16.15;39.12;102589.91;4418576;32;20371;-69
2022/01/23 10:25:41;;;;;;;29.40;17.20;;;;;;;16.50;39.02;102592.13;4417964;32;20164;-69
2022/01/23 10:30:50;;;;;;;29.90;18.10;;;;;;;16.74;38.26;102596.53;3974085;32;15147972;-70
2022/01/23 10:55:25;;;;;;;36.05;20.37;;;;;;;16.66;38.57;102600.72;3974933;32;15021244;-70
2022/01/23 10:57:54;;;;;;;32.08;18.62;;;;;;;16.28;38.84;102602.25;4419140;32;20137;-70
2022/01/23 11:00:25;;;;;;;30.92;17.30;;;;;;;15.86;40.07;102591.59;4422519;32;20179;-70
2022/01/23 11:02:51;;;;;;;37.47;20.40;;;;;;;16.29;39.18;102592.47;4427131;32;20111;-70
2022/01/23 11:05:19;;;;;;;32.95;19.42;;;;;;;16.21;38.87;102587.38;4427586;32;20060;-70
2022/01/23 11:07:48;;;;;;;29.55;16.83;;;;;;;16.13;39.44;102580.22;4427092;32;20071;-70
2022/01/23 11:10:17;;;;;;;24.48;14.38;;;;;;;16.45;39.10;102581.28;4426660;32;20083;-70
2022/01/23 11:18:15;;;;;;;20.92;11.95;;;;;;;16.48;38.85;102582.44;4429118;32;20068;-70
2022/01/23 11:20:45;;;;;;;19.48;10.85;;;;;;;15.63;40.20;102577.41;4428125;32;20524;-69
2022/01/23 11:31:19;;;;;;;30.08;12.23;;;;;;;16.32;39.12;102557.50;3997753;31;15017551;-70
2022/01/23 11:33:46;;;;;;;39.70;16.60;;;;;;;16.32;39.12;102557.50;4452611;32;20045;-70
2022/01/23 11:36:13;;;;;;;20.55;11.02;;;;;;;15.76;40.17;102559.34;4456988;32;20538;-70
2022/01/23 11:38:43;;;;;;;20.85;10.27;;;;;;;15.70;40.12;102555.37;4453570;32;20144;-70
2022/01/23 11:54:46;;;;;;;19.58;10.18;;;;;;;15.77;40.23;102543.09;4450073;32;20060;-70
2022/01/23 12:05:47;;;;;;;18.37;10.23;;;;;;;15.49;40.96;102538.69;3978911;32;15025787;-70
2022/01/23 12:08:32;;;;;;;17.77;9.93;;;;;;;15.49;40.96;102538.69;4430774;32;20037;-70
2022/01/23 12:17:05;;;;;;;18.77;8.68;;;;;;;15.77;40.02;102532.53;3979735;32;15023835;-70
2022/01/23 12:19:41;;;;;;;32.60;15.75;;;;;;;15.77;40.02;102532.53;4430125;32;20088;-70
2022/01/23 12:27:43;;;;;;;17.83;9.15;;;;;;;15.01;41.42;102511.84;3988799;32;15022226;-70
2022/01/23 12:32:44;;;;;;;14.73;8.50;;;;;;;15.22;41.01;102518.00;3993916;31;15017814;-71
2022/01/23 12:35:12;;;;;;;16.27;8.57;;;;;;;15.22;41.01;102518.00;4445193;32;20539;-69
2022/01/23 12:40:37;;;;;;;23.58;12.32;;;;;;;15.56;40.55;102512.25;3966948;32;15221135;-70
2022/01/23 12:56:28;;;;;;;15.23;8.15;;;;;;;15.64;39.88;102508.03;3991814;31;15014738;-70
2022/01/23 12:59:00;;;;;;;13.68;8.20;;;;;;;15.64;39.88;102508.03;4431674;32;20548;-70
2022/01/23 13:01:28;;;;;;;13.98;7.75;;;;;;;15.21;40.57;102488.03;4439271;32;20049;-70
2022/01/23 13:03:57;;;;;;;16.35;9.00;;;;;;;14.69;41.20;102495.25;4442650;32;20049;-70
2022/01/23 13:06:35;;;;;;;16.60;8.57;;;;;;;14.78;41.20;102494.72;4438533;32;21087;-70
2022/01/23 13:18:35;;;;;;;12.23;7.00;;;;;;;15.10;40.90;102489.44;3975127;32;15021965;-70
2022/01/23 13:32:01;;;;;;;12.30;7.10;;;;;;;14.70;41.54;102479.06;3996234;31;15015618;-70
2022/01/23 13:53:36;;;;;;;11.85;7.05;;;;;;;14.67;40.96;102480.69;3979489;32;15022997;-70
2022/01/23 13:58:54;;;;;;;12.50;6.53;;;;;;;14.78;41.27;102472.06;4431991;32;20000;-69
2022/01/23 14:04:06;;;;;;;14.02;7.05;;;;;;;14.60;41.36;102489.28;3973762;32;15028245;-71
2022/01/23 14:06:32;;;;;;;13.93;6.50;;;;;;;14.60;41.36;102489.28;4428708;32;20081;-70
2022/01/23 14:09:02;;;;;;;14.80;7.35;;;;;;;14.01;42.40;102479.44;4433576;32;20129;-71
2022/01/23 14:11:28;;;;;;;14.27;6.75;;;;;;;14.42;42.07;102470.94;4430663;32;20119;-69
2022/01/23 14:13:54;;;;;;;11.07;6.15;;;;;;;14.14;42.16;102462.75;4428971;32;20073;-70
2022/01/23 14:16:27;;;;;;;11.10;6.03;;;;;;;13.94;42.34;102462.53;4429356;32;20041;-69
2022/01/23 14:18:53;;;;;;;13.00;6.03;;;;;;;14.13;42.02;102464.75;4434758;32;20041;-70
2022/01/23 14:21:22;;;;;;;12.23;6.22;;;;;;;13.95;42.34;102466.97;4431452;32;20078;-70
2022/01/23 14:23:55;;;;;;;12.20;5.93;;;;;;;13.86;42.11;102458.16;4430576;32;20088;-71
2022/01/23 14:26:22;;;;;;;14.07;6.90;;;;;;;14.35;41.39;102462.50;4429312;32;20103;-71
2022/01/23 14:28:50;;;;;;;16.87;7.18;;;;;;;14.31;41.32;102453.25;4433425;32;20130;-70
2022/01/23 14:31:23;;;;;;;12.63;6.95;;;;;;;14.35;41.18;102459.66;4430652;32;20096;-70
2022/01/23 14:33:56;;;;;;;10.77;5.68;;;;;;;13.97;41.92;102456.81;4430346;32;20076;-70
2022/01/23 14:36:25;;;;;;;12.27;6.35;;;;;;;14.12;42.03;102454.66;4427870;32;20076;-70
2022/01/23 14:38:55;;;;;;;11.10;6.25;;;;;;;14.03;41.89;102449.47;4430654;32;20075;-70
2022/01/23 14:41:23;;;;;;;12.52;6.70;;;;;;;13.77;42.56;102453.00;4427540;32;20073;-70
2022/01/23 14:43:50;;;;;;;10.68;5.75;;;;;;;14.33;41.59;102436.66;4429537;32;20074;-70
2022/01/23 14:46:16;;;;;;;10.95;5.87;;;;;;;13.94;41.81;102443.50;4430184;32;20041;-70
2022/01/23 14:48:48;;;;;;;12.48;6.50;;;;;;;13.95;41.76;102431.00;4433852;32;20045;-71
2022/01/23 14:51:21;;;;;;;14.02;6.87;;;;;;;14.02;42.03;102433.72;4433059;32;20029;-70
2022/01/23 14:53:48;;;;;;;12.00;7.20;;;;;;;13.96;41.89;102435.41;4428293;32;20122;-70
2022/01/23 14:56:14;;;;;;;14.75;7.40;;;;;;;13.98;41.78;102430.16;4418984;32;20073;-70
2022/01/23 14:58:42;;;;;;;13.30;6.95;;;;;;;13.69;41.98;102425.22;4425839;32;20093;-70
2022/01/23 15:01:11;;;;;;;12.90;7.50;;;;;;;14.01;41.39;102431.31;4430203;32;20459;-70
2022/01/23 15:03:38;;;;;;;12.88;6.97;;;;;;;14.19;41.09;102425.44;4425487;32;20510;-70
2022/01/23 15:06:04;;;;;;;15.13;7.57;;;;;;;14.22;41.17;102422.59;4428743;32;20087;-70
2022/01/23 15:08:31;;;;;;;13.68;6.95;;;;;;;14.39;40.87;102413.06;4433883;32;20073;-70
2022/01/23 15:11:00;;;;;;;12.43;7.12;;;;;;;14.15;41.35;102419.84;4427877;32;20033;-70
2022/01/23 15:13:29;;;;;;;12.05;6.95;;;;;;;14.01;41.66;102420.81;4427564;32;20170;-70
2022/01/23 15:15:56;;;;;;;12.75;6.35;;;;;;;14.09;41.21;102413.81;4417882;32;20520;-70
2022/01/23 15:18:23;;;;;;;15.18;7.18;;;;;;;14.04;41.34;102413.50;4419830;32;20060;-70
2022/01/23 15:20:49;;;;;;;13.32;6.95;;;;;;;13.98;41.21;102410.34;4422077;32;20065;-70
2022/01/23 15:23:16;;;;;;;12.93;7.37;;;;;;;13.76;41.68;102422.28;4419227;32;20034;-70
2022/01/23 15:25:43;;;;;;;13.18;7.00;;;;;;;13.84;42.15;102415.34;4417553;32;20134;-70
2022/01/23 15:28:10;;;;;;;13.85;7.55;;;;;;;13.86;41.56;102413.69;4420057;32;20453;-70
2022/01/23 15:30:36;;;;;;;18.90;8.52;;;;;;;14.10;41.70;102423.13;4416952;32;20490;-70
2022/01/23 15:33:04;;;;;;;17.08;8.95;;;;;;;14.23;41.22;102420.56;4419036;32;20482;-70
2022/01/23 15:35:30;;;;;;;13.40;7.70;;;;;;;14.05;41.64;102409.44;4419247;32;20435;-70
2022/01/23 15:37:56;;;;;;;16.83;10.13;;;;;;;13.55;42.06;102405.53;4422347;32;20342;-70
2022/01/23 15:40:23;;;;;;;17.17;8.48;;;;;;;13.84;41.93;102416.13;4416673;32;20076;-70
2022/01/23 15:42:51;;;;;;;16.10;8.00;;;;;;;13.59;42.54;102404.28;4418596;32;20034;-70
2022/01/23 15:45:20;;;;;;;18.52;7.97;;;;;;;14.07;41.70;102399.31;4415932;32;20077;-70
2022/01/23 15:47:46;;;;;;;12.48;6.60;;;;;;;13.62;42.49;102409.09;4421106;32;20030;-70
2022/01/23 15:50:14;;;;;;;16.27;8.15;;;;;;;13.96;41.95;102401.44;4421502;32;20049;-70
2022/01/23 15:52:41;;;;;;;16.08;8.32;;;;;;;14.04;41.94;102405.00;4418956;32;20038;-70
2022/01/23 15:55:08;;;;;;;14.45;8.00;;;;;;;13.96;41.46;102409.13;4418968;32;20863;-70